Time;durP1;ratioP1;P1;durP2;ratioP2;P2;SDS_P1;SDS_P2;PMS_P1;PMS_P2;Temp;Humidity;BMP_temperature;BMP_pressure;BME280_temperature;BME280_humidity;BME280_pressure;Samples;Min_cycle;Max_cycle;Signal;HPM_P1;HPM_P2
2021/03/18 00:00:50;;;;;;;95.50;37.07;;;;;;;1.17;68.23;101380.72;5013492;58;1140860;-76
2021/03/18 00:05:57;;;;;;;114.77;45.35;;;;;;;1.15;68.34;101383.36;5013911;58;1138838;-77
2021/03/18 00:11:09;;;;;;;111.47;45.20;;;;;;;1.16;68.29;101389.43;5013984;58;1140531;-79
2021/03/18 00:16:15;;;;;;;105.50;43.70;;;;;;;1.05;68.12;101379.28;5013895;58;1141279;-78
2021/03/18 00:21:23;;;;;;;119.63;44.80;;;;;;;0.96;67.65;101389.91;5013789;58;1141021;-78
2021/03/18 00:26:34;;;;;;;104.50;40.30;;;;;;;0.65;67.60;101398.44;4985110;58;1140461;-77
2021/03/18 00:31:39;;;;;;;90.70;36.43;;;;;;;0.60;68.03;101382.53;4898088;59;1140721;-76
2021/03/18 00:36:46;;;;;;;134.73;47.90;;;;;;;0.42;67.76;101389.00;5003167;58;1139397;-78
2021/03/18 00:41:51;;;;;;;151.57;49.53;;;;;;;0.40;68.53;101387.31;5003007;58;1140619;-80
2021/03/18 00:46:57;;;;;;;139.12;45.25;;;;;;;0.41;68.74;101389.03;5002925;58;1140527;-77
2021/03/18 00:52:02;;;;;;;118.47;43.98;;;;;;;0.49;69.23;101383.20;4996970;58;1140612;-76
2021/03/18 00:57:09;;;;;;;113.83;41.90;;;;;;;0.56;69.34;101375.23;4870633;59;1141023;-77
2021/03/18 01:02:15;;;;;;;80.67;31.73;;;;;;;0.60;69.29;101374.28;4923032;58;1140508;-80
2021/03/18 01:07:21;;;;;;;88.30;32.00;;;;;;;0.62;69.30;101366.41;4956954;57;1138788;-78
2021/03/18 01:12:26;;;;;;;85.20;32.80;;;;;;;0.67;69.42;101376.28;4984386;57;1138517;-78
2021/03/18 01:17:33;;;;;;;72.00;29.67;;;;;;;0.73;69.65;101364.88;4971725;57;1138603;-77
2021/03/18 01:22:39;;;;;;;57.60;22.10;;;;;;;0.72;69.70;101354.05;4881354;59;1138658;-79
2021/03/18 01:27:44;;;;;;;55.97;20.90;;;;;;;0.67;69.21;101348.50;4991003;58;1138557;-77
2021/03/18 01:32:52;;;;;;;57.88;22.52;;;;;;;0.44;69.26;101352.54;5016654;58;1138473;-78
2021/03/18 01:37:58;;;;;;;62.13;22.97;;;;;;;0.20;69.60;101349.58;5001796;58;1139077;-77
2021/03/18 01:43:04;;;;;;;51.17;19.03;;;;;;;0.04;69.89;101349.93;5002818;58;1138342;-77
2021/03/18 01:48:10;;;;;;;48.27;17.00;;;;;;;0.08;70.72;101345.08;5003106;58;1138592;-77
2021/03/18 01:53:20;;;;;;;56.80;21.97;;;;;;;0.21;71.19;101344.78;4921793;58;1138384;-76
2021/03/18 01:58:27;;;;;;;49.77;20.93;;;;;;;0.36;71.35;101339.69;5002468;58;1138578;-77
2021/03/18 02:03:33;;;;;;;43.73;19.57;;;;;;;0.48;71.26;101331.59;5002851;58;1138424;-76
2021/03/18 02:08:39;;;;;;;57.43;22.50;;;;;;;0.58;71.24;101336.16;5002789;58;1139206;-75
2021/03/18 02:13:44;;;;;;;52.13;21.23;;;;;;;0.57;70.86;101336.61;5002814;58;1138533;-77
2021/03/18 02:19:26;;;;;;;44.27;18.50;;;;;;;0.62;71.14;101334.73;5002693;58;1138377;-74
2021/03/18 02:25:09;;;;;;;50.80;18.93;;;;;;;0.66;71.28;101326.41;5002897;58;1138429;-76
2021/03/18 02:30:50;;;;;;;54.50;21.47;;;;;;;0.50;70.47;101332.42;4991431;57;1138413;-77
2021/03/18 02:36:03;;;;;;;34.53;14.43;;;;;;;0.32;70.54;101338.03;4990970;58;1146201;-74
2021/03/18 02:41:18;;;;;;;51.58;19.23;;;;;;;0.12;70.87;101333.73;4991487;57;1138499;-74
2021/03/18 02:46:25;;;;;;;43.83;18.53;;;;;;;-0.09;71.27;101325.94;4990954;58;1138901;-77
2021/03/18 02:51:34;;;;;;;46.07;18.43;;;;;;;0.00;71.94;101336.16;4990914;57;1140632;-74
2021/03/18 02:56:45;;;;;;;53.43;18.97;;;;;;;0.09;72.24;101329.45;4990864;57;1138548;-76
2021/03/18 03:01:51;;;;;;;33.83;11.73;;;;;;;0.24;72.68;101324.36;4990988;57;1138667;-76
2021/03/18 03:06:59;;;;;;;30.90;10.97;;;;;;;0.31;72.35;101315.51;4991223;57;1138607;-75
2021/03/18 03:12:07;;;;;;;29.02;10.78;;;;;;;0.30;72.38;101312.52;4991084;57;1138543;-77
2021/03/18 03:17:17;;;;;;;38.47;13.07;;;;;;;0.30;72.38;101314.69;4990955;57;1138746;-77
2021/03/18 03:22:24;;;;;;;28.27;10.63;;;;;;;0.24;72.50;101315.25;4990890;57;1138555;-77
2021/03/18 03:27:30;;;;;;;29.30;11.93;;;;;;;0.13;72.52;101309.00;4991592;57;1138371;-75
2021/03/18 03:32:36;;;;;;;31.10;12.13;;;;;;;0.04;72.90;101316.98;5002527;57;1138513;-75
2021/03/18 03:37:45;;;;;;;26.60;11.97;;;;;;;-0.06;73.07;101320.23;5002633;58;1138506;-79
2021/03/18 03:42:50;;;;;;;31.37;12.67;;;;;;;-0.15;73.26;101324.75;5002294;57;1140429;-79
2021/03/18 03:47:57;;;;;;;25.00;11.53;;;;;;;-0.19;73.43;101320.52;5002592;58;1140557;-78
2021/03/18 03:53:22;;;;;;;26.07;11.53;;;;;;;-0.23;73.80;101317.56;5002597;58;1140493;-75
2021/03/18 03:58:56;;;;;;;26.73;12.13;;;;;;;-0.25;74.43;101325.84;5002317;58;1140701;-74
2021/03/18 04:04:09;;;;;;;18.00;10.30;;;;;;;-0.24;74.92;101314.55;5002953;58;1140698;-77
2021/03/18 04:09:18;;;;;;;24.87;12.33;;;;;;;-0.16;75.17;101310.07;5002664;58;1140555;-78
2021/03/18 04:14:28;;;;;;;26.80;13.90;;;;;;;-0.11;75.28;101303.86;5002513;58;1140627;-78
2021/03/18 04:19:34;;;;;;;37.50;15.73;;;;;;;0.02;75.47;101313.55;5002440;58;1140475;-79
2021/03/18 04:24:42;;;;;;;31.45;16.65;;;;;;;0.07;75.35;101314.77;5002404;58;1138443;-78
2021/03/18 04:29:48;;;;;;;29.77;16.00;;;;;;;0.11;75.25;101321.17;5002482;58;1138734;-78
2021/03/18 04:34:57;;;;;;;42.90;18.43;;;;;;;0.23;75.52;101312.23;5016353;58;1138660;-78
2021/03/18 04:40:06;;;;;;;32.63;18.40;;;;;;;0.20;74.99;101307.95;5001381;58;1139001;-76
2021/03/18 04:45:14;;;;;;;32.03;16.23;;;;;;;0.15;74.80;101315.02;5003052;58;1138720;-78
2021/03/18 04:50:23;;;;;;;39.03;17.03;;;;;;;0.10;74.94;101313.41;5002575;58;1138572;-78
2021/03/18 04:55:29;;;;;;;34.87;17.67;;;;;;;0.06;74.91;101315.20;5002632;58;1138630;-78
2021/03/18 05:00:38;;;;;;;32.20;16.23;;;;;;;0.06;75.13;101326.05;5002460;58;1138524;-76
2021/03/18 05:05:45;;;;;;;35.53;16.67;;;;;;;0.07;75.41;101327.33;5002697;58;1138466;-78
2021/03/18 05:10:52;;;;;;;26.93;13.73;;;;;;;0.03;75.28;101332.17;5002438;58;1138511;-77
2021/03/18 05:15:59;;;;;;;16.47;7.97;;;;;;;-0.09;75.61;101328.53;5002673;58;1138911;-79
2021/03/18 05:21:07;;;;;;;19.23;9.77;;;;;;;-0.14;76.21;101327.77;5003401;58;1139130;-77
2021/03/18 05:26:13;;;;;;;21.23;12.50;;;;;;;-0.22;76.46;101323.18;4990103;58;1138614;-76
2021/03/18 05:31:18;;;;;;;14.20;8.33;;;;;;;-0.28;76.83;101320.69;5002507;58;1141019;-76
2021/03/18 05:36:25;;;;;;;22.17;10.53;;;;;;;-0.27;77.30;101319.37;4960892;58;1138438;-76
2021/03/18 05:41:31;;;;;;;17.40;10.87;;;;;;;-0.21;77.53;101315.36;4921672;58;1140670;-76
2021/03/18 05:46:37;;;;;;;16.27;9.20;;;;;;;-0.18;77.75;101308.80;5002803;58;1140623;-76
2021/03/18 05:51:44;;;;;;;19.27;10.97;;;;;;;-0.14;78.01;101315.63;5002572;58;1138698;-76
2021/03/18 05:56:51;;;;;;;23.40;12.07;;;;;;;-0.10;77.99;101317.28;5002717;58;1140966;-76
2021/03/18 06:01:57;;;;;;;19.10;11.50;;;;;;;-0.07;78.15;101319.82;4983475;58;1140932;-76
2021/03/18 06:07:04;;;;;;;25.32;12.70;;;;;;;-0.04;78.22;101326.70;5002762;58;1140994;-76
2021/03/18 06:12:11;;;;;;;16.42;7.20;;;;;;;0.05;78.39;101333.00;5003070;58;1140714;-75
2021/03/18 06:17:18;;;;;;;25.97;13.57;;;;;;;0.13;78.53;101328.50;5003074;58;1136336;-76
2021/03/18 06:22:41;;;;;;;36.17;15.40;;;;;;;0.16;78.57;101329.71;5002954;58;1139154;-76
2021/03/18 06:27:48;;;;;;;24.50;12.67;;;;;;;0.27;78.67;101326.90;5002683;58;1138403;-76
2021/03/18 06:32:54;;;;;;;19.40;12.33;;;;;;;0.27;78.62;101330.36;5002807;58;1138542;-76
2021/03/18 06:37:59;;;;;;;23.60;13.23;;;;;;;0.27;78.67;101330.36;5002830;58;1138608;-76
2021/03/18 06:43:05;;;;;;;25.30;15.83;;;;;;;0.29;78.85;101338.13;5002773;58;1141587;-76
2021/03/18 06:48:16;;;;;;;21.17;13.80;;;;;;;0.33;78.98;101334.10;4994450;58;1138823;-76
2021/03/18 06:53:31;;;;;;;20.72;12.50;;;;;;;0.42;79.05;101337.41;4990829;57;1138964;-76
2021/03/18 06:58:36;;;;;;;29.77;14.10;;;;;;;0.49;79.16;101329.41;4993792;58;1138490;-75
2021/03/18 07:03:42;;;;;;;28.23;17.00;;;;;;;0.52;79.10;101337.59;4993448;58;1138472;-76
2021/03/18 07:08:47;;;;;;;23.57;13.73;;;;;;;0.55;79.25;101342.28;4993186;58;1138625;-76
2021/03/18 07:13:53;;;;;;;21.10;12.60;;;;;;;0.58;79.23;101338.31;4993084;57;1138548;-76
2021/03/18 07:19:00;;;;;;;20.82;10.78;;;;;;;0.60;79.40;101331.77;4993122;58;1138585;-76
2021/03/18 07:24:30;;;;;;;24.53;14.20;;;;;;;0.62;79.30;101332.56;4993424;58;1139163;-76
2021/03/18 07:29:36;;;;;;;19.77;12.07;;;;;;;0.59;79.18;101331.36;4992656;58;1138529;-76
2021/03/18 07:34:44;;;;;;;21.67;14.07;;;;;;;0.59;79.46;101329.62;4992727;58;1138452;-76
2021/03/18 07:39:49;;;;;;;23.43;13.60;;;;;;;0.60;79.45;101316.16;4992732;58;1138316;-76
2021/03/18 07:44:56;;;;;;;32.07;16.43;;;;;;;0.72;79.82;101317.61;4993095;57;1138799;-76
2021/03/18 07:50:09;;;;;;;32.80;18.60;;;;;;;0.88;79.76;101318.94;4992912;58;1138443;-76
2021/03/18 07:55:19;;;;;;;;;;;;;;;0.86;79.35;101322.88;4996771;58;1138670;-76
2021/03/18 08:00:26;;;;;;;18.07;11.30;;;;;;;0.85;79.35;101313.80;5005295;57;971925;-76
2021/03/18 08:05:42;;;;;;;14.40;8.80;;;;;;;0.93;79.56;101308.80;4993189;58;1136292;-76
2021/03/18 08:10:48;;;;;;;33.90;15.23;;;;;;;1.07;79.77;101303.70;4992997;58;1136297;-76
2021/03/18 08:15:53;;;;;;;37.63;18.73;;;;;;;1.12;79.40;101294.00;4992972;58;1138833;-77
2021/03/18 08:21:02;;;;;;;35.13;16.95;;;;;;;1.18;79.54;101294.71;4993172;58;1138796;-79
2021/03/18 08:26:23;;;;;;;270.73;118.00;;;;;;;1.29;79.91;101294.41;4992457;58;1138645;-76
2021/03/18 08:31:48;;;;;;;171.40;83.57;;;;;;;1.40;79.62;101289.75;4991523;58;1142816;-76
2021/03/18 08:36:58;;;;;;;16.03;11.47;;;;;;;1.44;78.89;101289.23;4991223;58;1140854;-76
2021/03/18 08:42:07;;;;;;;33.60;22.42;;;;;;;1.46;78.88;101297.86;4947230;57;1138693;-75
2021/03/18 08:47:15;;;;;;;32.07;22.40;;;;;;;1.49;78.73;101296.03;4841069;58;1139116;-73
2021/03/18 08:52:25;;;;;;;35.17;24.33;;;;;;;1.52;78.76;101289.89;4921243;58;1138568;-73
2021/03/18 08:57:34;;;;;;;10.23;6.63;;;;;;;1.54;78.31;101292.83;4917179;58;1138472;-74
2021/03/18 09:02:40;;;;;;;15.83;11.40;;;;;;;1.68;78.77;101286.77;4772680;59;1136816;-73
2021/03/18 09:07:48;;;;;;;17.80;9.90;;;;;;;1.73;77.98;101283.59;4951655;58;1139088;-73
2021/03/18 09:13:21;;;;;;;12.87;9.37;;;;;;;1.91;77.55;101276.98;4922307;58;1136345;-74
2021/03/18 09:18:30;;;;;;;11.53;6.87;;;;;;;2.07;77.49;101263.03;4922251;58;1137089;-74
2021/03/18 09:23:47;;;;;;;15.13;7.37;;;;;;;2.13;76.86;101272.44;4922116;58;1136653;-74
2021/03/18 09:28:52;;;;;;;16.97;5.20;;;;;;;2.06;76.40;101266.54;4922066;58;1136614;-73
2021/03/18 09:33:59;;;;;;;10.23;5.37;;;;;;;2.01;75.86;101257.98;4922176;58;1136672;-74
2021/03/18 09:39:11;;;;;;;15.13;7.27;;;;;;;2.08;75.49;101257.77;4931633;58;1136985;-76
2021/03/18 09:44:21;;;;;;;6.57;4.43;;;;;;;2.10;75.78;101258.58;5014313;57;1136394;-76
2021/03/18 09:49:40;;;;;;;6.07;5.47;;;;;;;2.03;75.65;101258.34;5014746;58;1134375;-77
2021/03/18 09:54:46;;;;;;;6.57;4.80;;;;;;;1.97;75.92;101252.03;5013605;57;1134805;-78
2021/03/18 09:59:53;;;;;;;79.60;31.43;;;;;;;2.22;75.95;101241.68;5014124;58;1134448;-76
2021/03/18 10:04:59;;;;;;;27.40;11.47;;;;;;;2.45;76.38;101248.75;5013499;57;1139044;-76
2021/03/18 10:10:06;;;;;;;16.20;8.53;;;;;;;2.60;75.58;101246.95;5014142;57;1138691;-76
2021/03/18 10:15:14;;;;;;;9.93;6.03;;;;;;;2.73;75.02;101248.27;5013812;57;1136505;-76
2021/03/18 10:20:25;;;;;;;36.30;11.05;;;;;;;2.76;74.53;101245.98;5013976;57;1134444;-74
2021/03/18 10:25:35;;;;;;;43.13;10.80;;;;;;;2.68;73.85;101247.56;5010855;57;1138566;-74
2021/03/18 10:30:51;;;;;;;23.30;8.83;;;;;;;2.69;74.06;101243.20;5013904;58;1139035;-73
2021/03/18 10:36:00;;;;;;;20.45;5.60;;;;;;;2.72;73.74;101236.57;5013377;57;1136518;-73
2021/03/18 10:41:10;;;;;;;114.00;23.35;;;;;;;2.53;72.80;101231.10;5002045;57;1136579;-73
2021/03/18 10:46:19;;;;;;;33.53;9.35;;;;;;;2.41;74.52;101214.55;4989774;57;1140463;-74
2021/03/18 10:51:25;;;;;;;15.90;5.70;;;;;;;2.63;74.37;101207.68;4977948;57;1136552;-73
2021/03/18 10:56:31;;;;;;;46.20;11.47;;;;;;;3.08;73.80;101197.39;4989880;57;1136531;-73
2021/03/18 11:01:37;;;;;;;15.37;7.53;;;;;;;3.25;72.92;101198.55;4989914;57;1139056;-75
2021/03/18 11:06:50;;;;;;;15.13;5.87;;;;;;;3.33;73.08;101192.14;4990228;58;1136401;-76
2021/03/18 11:11:59;;;;;;;26.55;7.00;;;;;;;3.49;72.60;101185.89;4990354;58;1137007;-75
2021/03/18 11:17:08;;;;;;;35.77;10.33;;;;;;;3.56;71.37;101181.26;4989779;58;1143622;-77
2021/03/18 11:22:14;;;;;;;9.98;4.17;;;;;;;3.75;71.23;101180.95;4989701;57;1138946;-75
2021/03/18 11:27:24;;;;;;;7.70;4.73;;;;;;;4.06;71.23;101169.67;4962493;57;1134486;-77
2021/03/18 11:32:30;;;;;;;11.00;5.03;;;;;;;4.20;69.38;101166.03;4947465;57;1134216;-77
2021/03/18 11:37:35;;;;;;;16.10;4.67;;;;;;;4.08;67.56;101161.31;4900121;59;1136340;-77
2021/03/18 11:42:41;;;;;;;33.83;11.00;;;;;;;3.97;68.48;101154.81;4990277;58;1136320;-77
2021/03/18 11:47:46;;;;;;;14.67;6.37;;;;;;;4.04;70.03;101153.62;4989985;57;1138447;-78
2021/03/18 11:52:52;;;;;;;14.47;7.07;;;;;;;4.37;69.27;101141.77;4990259;57;1136993;-76
2021/03/18 11:57:58;;;;;;;9.80;5.27;;;;;;;4.47;68.47;101131.30;4990073;57;1136721;-76
2021/03/18 12:03:07;;;;;;;67.10;19.10;;;;;;;4.38;65.90;101133.46;4962263;57;1134679;-74
2021/03/18 12:08:13;;;;;;;15.78;7.10;;;;;;;4.34;67.38;101133.19;4976389;57;1138550;-75
2021/03/18 12:13:19;;;;;;;36.35;14.23;;;;;;;4.20;66.22;101124.61;4990168;57;1137124;-77
2021/03/18 12:18:25;;;;;;;76.43;24.20;;;;;;;4.12;66.54;101121.47;4989758;57;1138677;-77
2021/03/18 12:23:30;;;;;;;18.43;6.47;;;;;;;4.20;66.34;101107.59;4990043;57;1138581;-79
2021/03/18 12:28:37;;;;;;;22.37;9.40;;;;;;;4.43;67.11;101104.83;4990292;57;1136616;-78
2021/03/18 12:33:42;;;;;;;8.57;3.80;;;;;;;4.54;65.91;101088.67;4990586;58;1136568;-75
2021/03/18 12:38:48;;;;;;;8.10;4.80;;;;;;;4.56;62.59;101086.84;4990748;57;1134253;-75
2021/03/18 12:43:54;;;;;;;8.90;3.97;;;;;;;4.48;65.16;101082.38;4990548;57;1134769;-74
2021/03/18 12:48:59;;;;;;;5.20;3.63;;;;;;;4.45;65.42;101083.36;4990785;57;1134505;-75
2021/03/18 12:54:06;;;;;;;8.80;4.80;;;;;;;4.41;64.89;101070.03;4990939;57;1134290;-75
2021/03/18 12:59:12;;;;;;;44.50;14.60;;;;;;;4.34;65.12;101068.58;4984748;58;1134241;-75
2021/03/18 13:04:17;;;;;;;12.28;5.42;;;;;;;4.30;65.64;101059.60;4990301;58;1138829;-79
2021/03/18 13:09:26;;;;;;;18.17;6.35;;;;;;;4.32;65.82;101058.62;4990655;57;1136381;-78
2021/03/18 13:14:31;;;;;;;37.27;10.50;;;;;;;4.40;65.73;101050.45;4990471;57;1136806;-80
2021/03/18 13:19:37;;;;;;;24.90;7.87;;;;;;;4.34;65.14;101041.08;4990307;57;1138369;-79
2021/03/18 13:24:42;;;;;;;7.78;4.60;;;;;;;4.30;64.74;101026.42;4990681;57;1136378;-79
2021/03/18 13:29:48;;;;;;;5.53;4.57;;;;;;;4.47;66.54;101026.53;4990571;57;1134360;-78
2021/03/18 13:34:54;;;;;;;15.87;7.10;;;;;;;4.87;65.90;101031.30;4990725;58;1134653;-78
2021/03/18 13:40:01;;;;;;;6.17;4.57;;;;;;;5.21;66.20;101018.30;4990112;57;1136836;-75
2021/03/18 13:45:09;;;;;;;7.77;5.13;;;;;;;5.19;63.28;101008.38;4994160;57;1134746;-75
2021/03/18 13:50:16;;;;;;;11.43;5.42;;;;;;;5.02;64.58;101008.31;5002235;58;1134636;-75
2021/03/18 13:55:22;;;;;;;13.70;8.20;;;;;;;5.20;65.40;100998.70;5001855;58;1136740;-75
2021/03/18 14:00:28;;;;;;;17.73;11.87;;;;;;;5.46;64.25;101000.09;5002409;58;1136668;-75
2021/03/18 14:05:34;;;;;;;14.70;7.47;;;;;;;5.49;63.12;100991.62;5001719;58;1138948;-75
2021/03/18 14:10:43;;;;;;;5.63;3.03;;;;;;;5.33;62.94;100981.48;5001127;58;1136351;-75
2021/03/18 14:15:48;;;;;;;23.62;5.80;;;;;;;5.35;60.57;100972.23;5000860;58;1134570;-75
2021/03/18 14:20:54;;;;;;;4.17;3.17;;;;;;;5.38;62.02;100974.68;5001566;58;1136502;-76
2021/03/18 14:26:00;;;;;;;3.50;3.20;;;;;;;5.50;60.32;100972.80;5001239;58;1134989;-75
2021/03/18 14:31:08;;;;;;;8.87;5.20;;;;;;;5.38;59.77;100962.41;5008169;58;1134310;-77
2021/03/18 14:36:14;;;;;;;41.28;12.15;;;;;;;5.22;61.12;100966.25;5000019;58;1134500;-75
2021/03/18 14:41:20;;;;;;;10.32;5.53;;;;;;;5.01;62.56;100959.43;4999861;58;1138451;-75
2021/03/18 14:46:27;;;;;;;8.87;4.47;;;;;;;4.98;63.07;100961.34;4981097;57;1136442;-75
2021/03/18 14:51:33;;;;;;;10.57;6.03;;;;;;;4.87;62.64;100955.30;4981962;57;1134364;-75
2021/03/18 14:56:38;;;;;;;17.90;9.63;;;;;;;4.77;63.63;100956.17;4889186;59;1137028;-75
2021/03/18 15:01:44;;;;;;;92.10;51.20;;;;;;;4.80;64.04;100949.95;4982436;57;1136351;-75
2021/03/18 15:06:50;;;;;;;59.50;35.70;;;;;;;4.77;64.02;100946.16;4891294;59;1138551;-75
2021/03/18 15:11:56;;;;;;;7.93;5.33;;;;;;;4.70;63.83;100942.14;4880454;59;1138548;-75
2021/03/18 15:17:02;;;;;;;12.57;6.63;;;;;;;4.61;63.90;100943.39;4982804;57;1134841;-75
2021/03/18 15:22:10;;;;;;;31.43;12.90;;;;;;;4.58;64.63;100943.07;4982844;57;1136771;-76
2021/03/18 15:27:16;;;;;;;18.90;6.55;;;;;;;4.58;64.89;100941.76;4891671;59;1139204;-77
2021/03/18 15:32:22;;;;;;;14.53;7.55;;;;;;;4.56;64.49;100944.09;4982525;57;1136783;-75
2021/03/18 15:37:27;;;;;;;74.83;26.43;;;;;;;4.54;65.13;100940.23;4891703;59;1136566;-75
2021/03/18 15:42:35;;;;;;;64.30;20.67;;;;;;;4.59;65.40;100938.22;4891391;59;1138709;-75
2021/03/18 15:47:42;;;;;;;4.00;3.50;;;;;;;4.60;65.23;100943.00;4983561;57;1138684;-75
2021/03/18 15:52:49;;;;;;;13.83;6.83;;;;;;;4.52;66.53;100937.28;4904459;59;1134453;-75
2021/03/18 15:57:58;;;;;;;11.27;5.40;;;;;;;4.31;66.96;100935.17;5003832;57;1136518;-76
2021/03/18 16:03:03;;;;;;;14.00;10.15;;;;;;;4.31;67.67;100930.39;4997422;57;1136299;-76
2021/03/18 16:08:09;;;;;;;16.17;6.70;;;;;;;4.19;67.83;100933.11;4981432;57;1138530;-77
2021/03/18 16:13:15;;;;;;;69.93;25.63;;;;;;;4.19;68.30;100932.65;4964222;57;1136401;-77
2021/03/18 16:18:20;;;;;;;37.50;15.05;;;;;;;4.27;68.35;100936.25;5012295;57;1138858;-77
2021/03/18 16:23:27;;;;;;;41.67;20.57;;;;;;;4.29;68.41;100934.84;4920639;58;1138459;-77
2021/03/18 16:28:32;;;;;;;21.00;10.97;;;;;;;4.29;68.18;100933.53;5012134;57;1138646;-76
2021/03/18 16:33:38;;;;;;;24.17;10.33;;;;;;;4.15;68.11;100927.61;5012681;57;1138490;-77
2021/03/18 16:38:44;;;;;;;7.07;4.27;;;;;;;3.98;68.30;100927.50;5011413;57;1138481;-77
2021/03/18 16:43:50;;;;;;;5.27;2.67;;;;;;;3.80;68.39;100925.25;5012066;57;1134313;-76
2021/03/18 16:48:56;;;;;;;12.00;4.30;;;;;;;3.54;68.45;100921.11;5012516;57;1134597;-75
2021/03/18 16:54:02;;;;;;;8.73;5.57;;;;;;;3.38;68.91;100914.81;4928322;58;1136289;-75
2021/03/18 16:59:07;;;;;;;9.17;3.37;;;;;;;3.23;69.31;100916.30;4953853;58;1243341;-76
2021/03/18 17:04:13;;;;;;;6.15;3.80;;;;;;;3.13;69.53;100917.59;4854505;59;1134298;-77
2021/03/18 17:09:18;;;;;;;12.20;3.43;;;;;;;3.01;69.81;100915.48;4951083;57;1134619;-78
2021/03/18 17:14:24;;;;;;;3.72;2.95;;;;;;;2.88;70.24;100915.58;4875623;59;1136538;-77
2021/03/18 17:19:30;;;;;;;60.37;28.40;;;;;;;2.76;70.63;100911.21;4956669;57;1134921;-79
2021/03/18 17:24:36;;;;;;;8.73;4.27;;;;;;;2.75;71.12;100915.22;4931979;58;1138723;-78
2021/03/18 17:29:41;;;;;;;4.80;3.43;;;;;;;2.71;70.98;100917.55;4945791;57;1134529;-74
2021/03/18 17:34:47;;;;;;;6.27;2.80;;;;;;;2.59;71.03;100911.50;4927871;58;1134619;-79
2021/03/18 17:39:53;;;;;;;5.87;3.17;;;;;;;2.70;71.50;100913.23;4932085;58;1134774;-77
2021/03/18 17:44:59;;;;;;;5.50;3.43;;;;;;;2.85;71.42;100915.24;4932277;58;1134568;-74
2021/03/18 17:50:08;;;;;;;4.67;3.63;;;;;;;2.96;70.96;100914.35;4927478;58;1134788;-78
2021/03/18 17:55:19;;;;;;;31.00;13.08;;;;;;;3.00;71.00;100928.16;4968234;57;1134774;-77
2021/03/18 18:00:28;;;;;;;54.70;23.92;;;;;;;3.01;71.17;100924.63;4961148;58;1139259;-76
2021/03/18 18:05:35;;;;;;;84.90;38.25;;;;;;;3.05;71.24;100923.61;4974306;57;1138606;-76
2021/03/18 18:10:40;;;;;;;112.60;45.10;;;;;;;2.97;71.00;100925.20;4982815;57;1138950;-78
2021/03/18 18:15:46;;;;;;;269.87;106.07;;;;;;;3.01;71.12;100919.41;4978527;57;1140747;-76
2021/03/18 18:20:53;;;;;;;249.73;106.97;;;;;;;3.05;71.12;100910.54;4975949;57;1142701;-77
2021/03/18 18:25:59;;;;;;;286.73;122.80;;;;;;;3.02;70.97;100905.43;4983138;57;1142761;-80
2021/03/18 18:31:05;;;;;;;346.15;136.40;;;;;;;3.00;71.13;100909.86;4901023;58;1142511;-75
2021/03/18 18:36:11;;;;;;;364.70;118.13;;;;;;;3.01;70.99;100908.95;5001520;57;1142608;-77
2021/03/18 18:41:17;;;;;;;132.25;56.18;;;;;;;2.83;69.87;100909.22;4867238;59;1143565;-76
2021/03/18 18:46:23;;;;;;;109.97;45.65;;;;;;;2.60;70.13;100916.63;4921544;59;1140580;-75
2021/03/18 18:51:29;;;;;;;96.60;39.90;;;;;;;2.27;70.13;100918.78;4922461;59;1140593;-77
2021/03/18 18:56:36;;;;;;;67.87;27.77;;;;;;;2.00;70.51;100919.31;4922670;59;1138804;-78
2021/03/18 19:01:41;;;;;;;40.50;17.97;;;;;;;1.89;70.75;100919.30;4954467;57;1138874;-80
2021/03/18 19:06:47;;;;;;;44.77;18.77;;;;;;;1.73;70.97;100912.47;4983044;57;1138511;-78
2021/03/18 19:11:52;;;;;;;45.97;18.37;;;;;;;1.72;71.40;100910.77;4892719;59;1138733;-76
2021/03/18 19:16:59;;;;;;;56.07;21.97;;;;;;;1.82;72.05;100912.62;4912558;58;1138772;-74
2021/03/18 19:22:04;;;;;;;48.17;20.57;;;;;;;1.94;72.10;100909.56;5002318;57;1138683;-78
2021/03/18 19:27:10;;;;;;;118.27;40.23;;;;;;;2.01;72.10;100912.34;5000412;57;1249198;-76
2021/03/18 19:32:15;;;;;;;125.40;43.05;;;;;;;2.03;71.98;100906.62;4996826;57;1140919;-79
2021/03/18 19:37:21;;;;;;;160.55;57.83;;;;;;;2.09;71.66;100911.17;4993316;58;1140687;-75
2021/03/18 19:42:27;;;;;;;82.85;31.52;;;;;;;2.11;71.61;100905.45;4983222;57;1140781;-75
2021/03/18 19:47:32;;;;;;;97.93;36.53;;;;;;;1.94;70.83;100898.68;4997865;57;1138562;-78
2021/03/18 19:52:38;;;;;;;149.73;54.33;;;;;;;1.81;71.18;100897.87;4983265;57;1138917;-75
2021/03/18 19:57:44;;;;;;;248.57;110.93;;;;;;;1.82;71.51;100903.49;4973554;57;1140606;-77
2021/03/18 20:02:53;;;;;;;334.10;141.35;;;;;;;1.88;71.78;100905.86;4933525;58;1142701;-77
2021/03/18 20:08:00;;;;;;;479.47;180.67;;;;;;;1.89;71.85;100908.88;4854770;59;1142680;-75
2021/03/18 20:13:06;;;;;;;323.37;121.10;;;;;;;1.67;71.01;100907.04;4933344;58;1142641;-77
2021/03/18 20:18:14;;;;;;;453.53;176.93;;;;;;;1.55;71.47;100911.34;4867629;59;1142681;-77
2021/03/18 20:23:20;;;;;;;401.13;151.75;;;;;;;1.55;71.82;100903.52;4860237;59;1143344;-77
2021/03/18 20:28:25;;;;;;;300.05;107.35;;;;;;;1.58;71.79;100909.94;4933517;58;1142698;-75
2021/03/18 20:33:31;;;;;;;360.37;121.77;;;;;;;1.58;71.83;100908.64;4854830;59;1142814;-79
2021/03/18 20:38:37;;;;;;;335.70;120.20;;;;;;;1.56;71.75;100918.27;4933834;58;1142524;-79
2021/03/18 20:43:43;;;;;;;322.53;112.03;;;;;;;1.55;71.50;100910.05;4854887;59;1142947;-77
2021/03/18 20:48:49;;;;;;;335.40;120.17;;;;;;;1.46;70.95;100910.81;4933724;58;1142698;-81
2021/03/18 20:53:55;;;;;;;311.25;112.35;;;;;;;1.35;71.16;100919.00;4972983;58;1142758;-78
2021/03/18 20:59:00;;;;;;;305.07;108.20;;;;;;;1.33;71.60;100919.05;4923250;57;1142843;-81
2021/03/18 21:04:06;;;;;;;284.70;106.25;;;;;;;1.36;71.84;100912.89;4824076;59;1142616;-77
2021/03/18 21:09:12;;;;;;;213.57;80.17;;;;;;;1.32;71.28;100916.50;4908867;57;1259282;-78
2021/03/18 21:14:17;;;;;;;151.82;59.65;;;;;;;1.19;71.24;100914.75;4854857;59;1141051;-77
2021/03/18 21:19:23;;;;;;;249.63;84.27;;;;;;;1.11;71.65;100928.91;4947803;57;1140822;-76
2021/03/18 21:24:28;;;;;;;271.70;91.60;;;;;;;1.14;72.23;100923.16;4871824;58;1140954;-77
2021/03/18 21:29:34;;;;;;;290.93;97.83;;;;;;;1.16;72.20;100926.56;4991014;58;1140684;-74
2021/03/18 21:34:39;;;;;;;386.13;132.67;;;;;;;1.22;72.38;100925.53;4964657;57;1141231;-77
2021/03/18 21:39:45;;;;;;;436.40;147.57;;;;;;;1.28;72.56;100924.00;4920762;58;1142785;-79
2021/03/18 21:44:53;;;;;;;333.50;113.08;;;;;;;1.19;72.04;100923.02;4853895;59;1143165;-80
2021/03/18 21:50:00;;;;;;;313.67;111.73;;;;;;;1.04;72.05;100938.23;4987577;58;1142811;-75
2021/03/18 21:55:08;;;;;;;296.83;112.53;;;;;;;0.96;72.82;100932.41;4990196;58;1142939;-75
2021/03/18 22:00:20;;;;;;;276.73;104.23;;;;;;;0.96;73.29;100928.50;5000983;58;1142658;-75
2021/03/18 22:05:27;;;;;;;269.37;100.87;;;;;;;1.00;73.58;100928.81;4997448;57;1143153;-79
2021/03/18 22:10:32;;;;;;;224.27;84.97;;;;;;;1.13;73.93;100928.41;4980198;57;1142688;-80
2021/03/18 22:15:38;;;;;;;281.47;106.20;;;;;;;1.14;73.57;100927.06;4893535;59;1140661;-76
2021/03/18 22:20:44;;;;;;;281.50;99.73;;;;;;;1.18;73.86;100933.03;5002493;58;1142560;-76
2021/03/18 22:25:50;;;;;;;231.40;89.33;;;;;;;1.23;74.03;100923.30;5002708;58;1140934;-78
2021/03/18 22:30:55;;;;;;;263.98;92.90;;;;;;;1.27;73.95;100933.58;5002419;58;1140533;-73
2021/03/18 22:36:01;;;;;;;227.27;85.80;;;;;;;1.24;73.57;100932.81;5002762;58;1140761;-77
2021/03/18 22:41:07;;;;;;;215.77;81.03;;;;;;;1.30;74.01;100923.51;5002695;58;1140456;-78
2021/03/18 22:46:13;;;;;;;207.73;78.30;;;;;;;1.24;74.07;100923.25;5002708;58;1140726;-79
2021/03/18 22:51:18;;;;;;;147.27;57.17;;;;;;;1.36;74.51;100928.53;5002873;58;1140581;-75
2021/03/18 22:56:24;;;;;;;178.53;67.20;;;;;;;1.41;74.62;100919.63;5002862;58;1141023;-76
2021/03/18 23:01:30;;;;;;;190.12;68.00;;;;;;;1.41;74.56;100917.48;4999053;58;1140620;-76